Hauptseite
METAR-TAF:

METAR-TAF

Flughäfen :

Whale Cove, Nunavut, Kanada

Breite: 62-14N, Länge: 092-36W, Höhe: 20 m

Beobachtung

Neuester Wetterbericht von vor 5 Stunden und 58 Minuten, um 22:00 UTC
Wind 21 kt aus Nordwest
Temperatur 0°C
Luftfeuchtigkeit 93%
Luftdruck 1008 hPa
Sichtweite: 16.1 km
Leicht bewölkt in der Höhe von 700 ft
Geschlossene Wolkendecke in der Höhe von 5000 ft
Schnee leicht

METAR: CYXN 182200Z 32021KT 10SM -SN FEW007 OVC050 00/M01 A2977 RMK SF2SC6 6.0/0.0/2.0MM/LAST STFD OBS/NEXT 191200Z SLP082

Zeit: 22:58 (03:58 UTC)


TAF: fehlend

Wetterbeobachtungen und Prognosen von mehr als 4000 Flughäfen (METAR und TAF Bericht).

Die verfügbaren Stationen werden durch gelbe und rote Markierungen auf der Karte dargestellt.

Führen Sie die Maus auf sie, um den Namen der Station zu sehen.

Darauf klicken, um die Beobachtung von Wetterbeobachtungen und Prognosen zu sehen.

Um die Karte zu ändern : klicken Sie auf den grünen Tasten mit einem schwarzen Kreuz Zum Vergrößern, auf den grünen Button mit einem Gedankenstrich zu verkleinern, oder auf die grünen Pfeile für benachbarte Karten.


METAR-TAF: